sensor_id;sensor_type;location;lat;lon;timestamp;temperature;humidity
12819;DHT22;6474;53.474;9.894;2022-10-31T00:01:40;12.60;91.50
12819;DHT22;6474;53.474;9.894;2022-10-31T00:04:11;12.70;91.40
12819;DHT22;6474;53.474;9.894;2022-10-31T00:06:43;12.80;91.30
12819;DHT22;6474;53.474;9.894;2022-10-31T00:09:11;12.90;91.20
12819;DHT22;6474;53.474;9.894;2022-10-31T00:11:44;12.90;91.20
12819;DHT22;6474;53.474;9.894;2022-10-31T00:14:12;13.00;91.20
12819;DHT22;6474;53.474;9.894;2022-10-31T00:16:42;13.10;91.10
12819;DHT22;6474;53.474;9.894;2022-10-31T00:19:10;13.10;91.10
12819;DHT22;6474;53.474;9.894;2022-10-31T00:21:38;13.10;91.10
12819;DHT22;6474;53.474;9.894;2022-10-31T00:24:07;13.20;91.10
12819;DHT22;6474;53.474;9.894;2022-10-31T00:26:35;13.20;91.10
12819;DHT22;6474;53.474;9.894;2022-10-31T00:29:03;13.20;91.00
12819;DHT22;6474;53.474;9.894;2022-10-31T00:31:31;13.20;91.00
12819;DHT22;6474;53.474;9.894;2022-10-31T00:33:59;13.30;91.10
12819;DHT22;6474;53.474;9.894;2022-10-31T00:36:30;13.20;91.10
12819;DHT22;6474;53.474;9.894;2022-10-31T00:38:58;13.30;91.10
12819;DHT22;6474;53.474;9.894;2022-10-31T00:41:29;13.30;91.10
12819;DHT22;6474;53.474;9.894;2022-10-31T00:43:57;13.30;91.10
12819;DHT22;6474;53.474;9.894;2022-10-31T00:46:24;13.30;91.10
12819;DHT22;6474;53.474;9.894;2022-10-31T00:48:52;13.30;91.10
12819;DHT22;6474;53.474;9.894;2022-10-31T00:51:20;13.30;91.40
12819;DHT22;6474;53.474;9.894;2022-10-31T00:53:48;13.20;91.00
12819;DHT22;6474;53.474;9.894;2022-10-31T00:56:16;13.20;91.10
12819;DHT22;6474;53.474;9.894;2022-10-31T00:58:45;13.20;91.10
12819;DHT22;6474;53.474;9.894;2022-10-31T01:01:12;13.20;91.10
12819;DHT22;6474;53.474;9.894;2022-10-31T01:03:40;13.20;91.10
12819;DHT22;6474;53.474;9.894;2022-10-31T01:06:09;13.10;91.10
12819;DHT22;6474;53.474;9.894;2022-10-31T01:08:38;13.10;91.20
12819;DHT22;6474;53.474;9.894;2022-10-31T01:11:08;13.10;91.20
12819;DHT22;6474;53.474;9.894;2022-10-31T01:13:37;13.10;91.30
12819;DHT22;6474;53.474;9.894;2022-10-31T01:16:08;13.00;91.20
12819;DHT22;6474;53.474;9.894;2022-10-31T01:18:37;13.10;91.30
12819;DHT22;6474;53.474;9.894;2022-10-31T01:21:08;13.10;91.30
12819;DHT22;6474;53.474;9.894;2022-10-31T01:23:36;13.00;91.30
12819;DHT22;6474;53.474;9.894;2022-10-31T01:26:07;13.10;91.30
12819;DHT22;6474;53.474;9.894;2022-10-31T01:28:37;13.10;91.30
12819;DHT22;6474;53.474;9.894;2022-10-31T01:31:08;13.10;91.40
12819;DHT22;6474;53.474;9.894;2022-10-31T01:33:36;13.10;91.40
12819;DHT22;6474;53.474;9.894;2022-10-31T01:36:12;13.20;91.40
12819;DHT22;6474;53.474;9.894;2022-10-31T01:38:40;13.20;91.40
12819;DHT22;6474;53.474;9.894;2022-10-31T01:41:08;13.30;91.40
12819;DHT22;6474;53.474;9.894;2022-10-31T01:43:47;13.30;91.30
12819;DHT22;6474;53.474;9.894;2022-10-31T01:46:19;13.30;91.30
12819;DHT22;6474;53.474;9.894;2022-10-31T01:48:49;13.30;91.60
12819;DHT22;6474;53.474;9.894;2022-10-31T01:51:21;13.30;91.20
12819;DHT22;6474;53.474;9.894;2022-10-31T01:53:51;13.20;91.50
12819;DHT22;6474;53.474;9.894;2022-10-31T01:56:21;13.30;91.30
12819;DHT22;6474;53.474;9.894;2022-10-31T01:58:50;13.20;91.20
12819;DHT22;6474;53.474;9.894;2022-10-31T02:01:20;13.20;91.30
12819;DHT22;6474;53.474;9.894;2022-10-31T02:03:48;13.20;91.30
12819;DHT22;6474;53.474;9.894;2022-10-31T02:06:33;13.20;91.30
12819;DHT22;6474;53.474;9.894;2022-10-31T02:09:05;13.30;91.40
12819;DHT22;6474;53.474;9.894;2022-10-31T02:11:34;13.30;91.40
12819;DHT22;6474;53.474;9.894;2022-10-31T02:14:03;13.30;91.30
12819;DHT22;6474;53.474;9.894;2022-10-31T02:16:33;13.30;91.30
12819;DHT22;6474;53.474;9.894;2022-10-31T02:19:00;13.30;91.30
12819;DHT22;6474;53.474;9.894;2022-10-31T02:21:33;13.30;91.30
12819;DHT22;6474;53.474;9.894;2022-10-31T02:27:19;13.30;91.30
12819;DHT22;6474;53.474;9.894;2022-10-31T02:30:08;13.30;91.30
12819;DHT22;6474;53.474;9.894;2022-10-31T02:33:07;13.30;91.30
12819;DHT22;6474;53.474;9.894;2022-10-31T02:35:47;13.30;91.30
12819;DHT22;6474;53.474;9.894;2022-10-31T02:38:25;13.30;91.30
12819;DHT22;6474;53.474;9.894;2022-10-31T02:41:01;13.30;91.30
12819;DHT22;6474;53.474;9.894;2022-10-31T02:43:35;13.20;91.30
12819;DHT22;6474;53.474;9.894;2022-10-31T02:46:11;13.20;91.30
12819;DHT22;6474;53.474;9.894;2022-10-31T02:48:44;13.20;91.30
12819;DHT22;6474;53.474;9.894;2022-10-31T02:51:13;13.20;91.30
12819;DHT22;6474;53.474;9.894;2022-10-31T02:53:42;13.20;91.30
12819;DHT22;6474;53.474;9.894;2022-10-31T02:56:12;13.10;91.30
12819;DHT22;6474;53.474;9.894;2022-10-31T02:58:44;13.10;91.30
12819;DHT22;6474;53.474;9.894;2022-10-31T03:01:32;13.10;91.30
12819;DHT22;6474;53.474;9.894;2022-10-31T03:07:06;13.10;91.30
12819;DHT22;6474;53.474;9.894;2022-10-31T03:09:43;13.10;91.30
12819;DHT22;6474;53.474;9.894;2022-10-31T03:12:19;13.10;91.40
12819;DHT22;6474;53.474;9.894;2022-10-31T03:14:53;13.00;91.30
12819;DHT22;6474;53.474;9.894;2022-10-31T03:17:25;13.00;91.40
12819;DHT22;6474;53.474;9.894;2022-10-31T03:19:59;13.00;91.40
12819;DHT22;6474;53.474;9.894;2022-10-31T03:22:30;13.00;91.40
12819;DHT22;6474;53.474;9.894;2022-10-31T03:25:02;13.00;91.40
12819;DHT22;6474;53.474;9.894;2022-10-31T03:27:33;12.90;91.40
12819;DHT22;6474;53.474;9.894;2022-10-31T03:30:03;13.00;91.40
12819;DHT22;6474;53.474;9.894;2022-10-31T03:32:36;12.90;91.40
12819;DHT22;6474;53.474;9.894;2022-10-31T03:35:08;12.90;91.40
12819;DHT22;6474;53.474;9.894;2022-10-31T03:37:38;12.90;91.40
12819;DHT22;6474;53.474;9.894;2022-10-31T03:40:08;12.90;91.40
12819;DHT22;6474;53.474;9.894;2022-10-31T03:42:39;12.90;91.40
12819;DHT22;6474;53.474;9.894;2022-10-31T03:45:11;12.80;91.40
12819;DHT22;6474;53.474;9.894;2022-10-31T03:47:41;12.90;91.40
12819;DHT22;6474;53.474;9.894;2022-10-31T03:50:14;12.80;91.40
12819;DHT22;6474;53.474;9.894;2022-10-31T03:52:46;12.80;91.40
12819;DHT22;6474;53.474;9.894;2022-10-31T03:55:18;12.80;91.40
12819;DHT22;6474;53.474;9.894;2022-10-31T03:57:52;12.80;91.40
12819;DHT22;6474;53.474;9.894;2022-10-31T04:00:22;12.80;91.40
12819;DHT22;6474;53.474;9.894;2022-10-31T04:02:55;12.80;91.40
12819;DHT22;6474;53.474;9.894;2022-10-31T04:05:27;12.90;91.40
12819;DHT22;6474;53.474;9.894;2022-10-31T04:07:58;12.80;91.30
12819;DHT22;6474;53.474;9.894;2022-10-31T04:10:27;12.80;91.40
12819;DHT22;6474;53.474;9.894;2022-10-31T04:13:03;12.80;91.40
12819;DHT22;6474;53.474;9.894;2022-10-31T04:15:32;12.80;91.40
12819;DHT22;6474;53.474;9.894;2022-10-31T04:18:01;12.80;91.40
12819;DHT22;6474;53.474;9.894;2022-10-31T04:20:34;12.80;91.70
12819;DHT22;6474;53.474;9.894;2022-10-31T04:23:04;12.80;91.40
12819;DHT22;6474;53.474;9.894;2022-10-31T04:25:36;12.80;91.40
12819;DHT22;6474;53.474;9.894;2022-10-31T04:28:04;12.70;91.40
12819;DHT22;6474;53.474;9.894;2022-10-31T04:30:32;12.70;91.40
12819;DHT22;6474;53.474;9.894;2022-10-31T04:33:00;12.70;91.40
12819;DHT22;6474;53.474;9.894;2022-10-31T04:35:28;12.70;91.50
12819;DHT22;6474;53.474;9.894;2022-10-31T04:37:57;12.80;91.50
12819;DHT22;6474;53.474;9.894;2022-10-31T04:40:25;12.70;91.50
12819;DHT22;6474;53.474;9.894;2022-10-31T04:42:53;12.70;91.50
12819;DHT22;6474;53.474;9.894;2022-10-31T04:45:21;12.80;91.50
12819;DHT22;6474;53.474;9.894;2022-10-31T04:47:49;12.80;91.60
12819;DHT22;6474;53.474;9.894;2022-10-31T04:50:17;12.80;91.50
12819;DHT22;6474;53.474;9.894;2022-10-31T04:52:46;12.90;91.60
12819;DHT22;6474;53.474;9.894;2022-10-31T04:55:15;12.90;91.60
12819;DHT22;6474;53.474;9.894;2022-10-31T04:57:45;12.90;91.60
12819;DHT22;6474;53.474;9.894;2022-10-31T05:00:15;12.90;91.60
12819;DHT22;6474;53.474;9.894;2022-10-31T05:02:44;12.90;91.50
12819;DHT22;6474;53.474;9.894;2022-10-31T05:05:12;12.90;91.50
12819;DHT22;6474;53.474;9.894;2022-10-31T05:07:40;12.90;91.50
12819;DHT22;6474;53.474;9.894;2022-10-31T05:10:08;13.00;91.60
12819;DHT22;6474;53.474;9.894;2022-10-31T05:12:45;13.00;91.60
12819;DHT22;6474;53.474;9.894;2022-10-31T05:15:15;13.00;91.60
12819;DHT22;6474;53.474;9.894;2022-10-31T05:17:43;12.90;91.50
12819;DHT22;6474;53.474;9.894;2022-10-31T05:20:12;12.90;91.50
12819;DHT22;6474;53.474;9.894;2022-10-31T05:22:42;12.90;91.50
12819;DHT22;6474;53.474;9.894;2022-10-31T05:25:11;12.90;91.50
12819;DHT22;6474;53.474;9.894;2022-10-31T05:27:41;12.90;91.50
12819;DHT22;6474;53.474;9.894;2022-10-31T05:30:11;12.90;91.50
12819;DHT22;6474;53.474;9.894;2022-10-31T05:32:40;12.90;91.50
12819;DHT22;6474;53.474;9.894;2022-10-31T05:35:11;12.90;91.50
12819;DHT22;6474;53.474;9.894;2022-10-31T05:37:39;12.90;91.50
12819;DHT22;6474;53.474;9.894;2022-10-31T05:40:10;12.90;91.50
12819;DHT22;6474;53.474;9.894;2022-10-31T05:42:38;12.80;91.50
12819;DHT22;6474;53.474;9.894;2022-10-31T05:45:09;12.80;91.50
12819;DHT22;6474;53.474;9.894;2022-10-31T05:47:37;12.80;91.60
12819;DHT22;6474;53.474;9.894;2022-10-31T05:50:07;12.80;91.50
12819;DHT22;6474;53.474;9.894;2022-10-31T05:52:35;12.80;91.50
12819;DHT22;6474;53.474;9.894;2022-10-31T05:55:03;12.80;91.50
12819;DHT22;6474;53.474;9.894;2022-10-31T05:57:32;12.80;91.60
12819;DHT22;6474;53.474;9.894;2022-10-31T06:00:01;12.70;91.50
12819;DHT22;6474;53.474;9.894;2022-10-31T06:02:30;12.70;91.60
12819;DHT22;6474;53.474;9.894;2022-10-31T06:05:01;12.70;91.60
12819;DHT22;6474;53.474;9.894;2022-10-31T06:07:32;12.70;91.60
12819;DHT22;6474;53.474;9.894;2022-10-31T06:10:00;12.70;91.70
12819;DHT22;6474;53.474;9.894;2022-10-31T06:12:28;12.70;91.70
12819;DHT22;6474;53.474;9.894;2022-10-31T06:14:56;12.70;91.70
12819;DHT22;6474;53.474;9.894;2022-10-31T06:17:24;12.70;91.70
12819;DHT22;6474;53.474;9.894;2022-10-31T06:19:53;12.70;91.70
12819;DHT22;6474;53.474;9.894;2022-10-31T06:22:21;12.70;91.70
12819;DHT22;6474;53.474;9.894;2022-10-31T06:24:49;12.70;91.70
12819;DHT22;6474;53.474;9.894;2022-10-31T06:27:17;12.80;91.70
12819;DHT22;6474;53.474;9.894;2022-10-31T06:29:45;12.80;91.70
12819;DHT22;6474;53.474;9.894;2022-10-31T06:32:13;12.80;91.70
12819;DHT22;6474;53.474;9.894;2022-10-31T06:34:42;12.80;91.70
12819;DHT22;6474;53.474;9.894;2022-10-31T06:37:12;12.80;91.70
12819;DHT22;6474;53.474;9.894;2022-10-31T06:39:39;12.80;91.70
12819;DHT22;6474;53.474;9.894;2022-10-31T06:42:07;12.80;91.60
12819;DHT22;6474;53.474;9.894;2022-10-31T06:44:35;12.80;91.60
12819;DHT22;6474;53.474;9.894;2022-10-31T06:47:02;12.80;91.50
12819;DHT22;6474;53.474;9.894;2022-10-31T06:49:30;12.70;91.50
12819;DHT22;6474;53.474;9.894;2022-10-31T06:51:58;12.70;91.50
12819;DHT22;6474;53.474;9.894;2022-10-31T06:54:27;12.70;91.50
12819;DHT22;6474;53.474;9.894;2022-10-31T06:56:55;12.70;91.50
12819;DHT22;6474;53.474;9.894;2022-10-31T06:59:23;12.70;91.60
12819;DHT22;6474;53.474;9.894;2022-10-31T07:01:52;12.60;91.50
12819;DHT22;6474;53.474;9.894;2022-10-31T07:04:20;12.60;91.60
12819;DHT22;6474;53.474;9.894;2022-10-31T07:06:50;12.60;91.60
12819;DHT22;6474;53.474;9.894;2022-10-31T07:09:18;12.60;91.60
12819;DHT22;6474;53.474;9.894;2022-10-31T07:11:47;12.60;91.60
12819;DHT22;6474;53.474;9.894;2022-10-31T07:14:15;12.60;91.60
12819;DHT22;6474;53.474;9.894;2022-10-31T07:16:43;12.70;91.70
12819;DHT22;6474;53.474;9.894;2022-10-31T07:19:11;12.70;91.70
12819;DHT22;6474;53.474;9.894;2022-10-31T07:21:38;12.70;91.70
12819;DHT22;6474;53.474;9.894;2022-10-31T07:24:06;12.70;91.70
12819;DHT22;6474;53.474;9.894;2022-10-31T07:26:34;12.80;91.70
12819;DHT22;6474;53.474;9.894;2022-10-31T07:29:03;12.80;91.70
12819;DHT22;6474;53.474;9.894;2022-10-31T07:31:31;12.80;91.70
12819;DHT22;6474;53.474;9.894;2022-10-31T07:33:59;12.90;91.70
12819;DHT22;6474;53.474;9.894;2022-10-31T07:36:27;12.90;91.70
12819;DHT22;6474;53.474;9.894;2022-10-31T07:38:54;13.00;91.70
12819;DHT22;6474;53.474;9.894;2022-10-31T07:41:25;13.00;91.70
12819;DHT22;6474;53.474;9.894;2022-10-31T07:43:53;13.00;91.70
12819;DHT22;6474;53.474;9.894;2022-10-31T07:46:22;13.10;91.80
12819;DHT22;6474;53.474;9.894;2022-10-31T07:48:50;13.10;91.80
12819;DHT22;6474;53.474;9.894;2022-10-31T07:51:18;13.20;91.80
12819;DHT22;6474;53.474;9.894;2022-10-31T07:53:46;13.20;91.80
12819;DHT22;6474;53.474;9.894;2022-10-31T07:56:14;13.20;91.80
12819;DHT22;6474;53.474;9.894;2022-10-31T07:58:41;13.30;91.80
12819;DHT22;6474;53.474;9.894;2022-10-31T08:01:09;13.40;91.90
12819;DHT22;6474;53.474;9.894;2022-10-31T08:03:44;13.40;91.90
12819;DHT22;6474;53.474;9.894;2022-10-31T08:06:12;13.50;91.90
12819;DHT22;6474;53.474;9.894;2022-10-31T08:08:40;13.60;91.90
12819;DHT22;6474;53.474;9.894;2022-10-31T08:11:08;13.60;91.90
12819;DHT22;6474;53.474;9.894;2022-10-31T08:13:35;13.70;91.90
12819;DHT22;6474;53.474;9.894;2022-10-31T08:16:04;13.70;91.90
12819;DHT22;6474;53.474;9.894;2022-10-31T08:18:34;13.80;91.90
12819;DHT22;6474;53.474;9.894;2022-10-31T08:21:05;13.80;91.90
12819;DHT22;6474;53.474;9.894;2022-10-31T08:23:36;13.80;91.90
12819;DHT22;6474;53.474;9.894;2022-10-31T08:26:04;13.80;91.90
12819;DHT22;6474;53.474;9.894;2022-10-31T08:28:32;13.90;91.90
12819;DHT22;6474;53.474;9.894;2022-10-31T08:31:00;13.90;92.00
12819;DHT22;6474;53.474;9.894;2022-10-31T08:33:28;13.90;91.90
12819;DHT22;6474;53.474;9.894;2022-10-31T08:35:57;13.90;92.00
12819;DHT22;6474;53.474;9.894;2022-10-31T08:38:26;14.00;92.00
12819;DHT22;6474;53.474;9.894;2022-10-31T08:40:55;14.00;92.00
12819;DHT22;6474;53.474;9.894;2022-10-31T08:43:23;14.00;91.90
12819;DHT22;6474;53.474;9.894;2022-10-31T08:45:51;14.00;91.90
12819;DHT22;6474;53.474;9.894;2022-10-31T08:48:21;14.00;91.90
12819;DHT22;6474;53.474;9.894;2022-10-31T08:50:49;14.00;91.90
12819;DHT22;6474;53.474;9.894;2022-10-31T08:53:18;13.90;91.80
12819;DHT22;6474;53.474;9.894;2022-10-31T08:55:47;14.00;92.00
12819;DHT22;6474;53.474;9.894;2022-10-31T08:58:17;13.90;92.00
12819;DHT22;6474;53.474;9.894;2022-10-31T09:00:46;14.00;92.10
12819;DHT22;6474;53.474;9.894;2022-10-31T09:03:16;14.10;92.10
12819;DHT22;6474;53.474;9.894;2022-10-31T09:05:44;14.00;92.10
12819;DHT22;6474;53.474;9.894;2022-10-31T09:08:13;14.10;92.10
12819;DHT22;6474;53.474;9.894;2022-10-31T09:10:43;14.20;92.20
12819;DHT22;6474;53.474;9.894;2022-10-31T09:13:14;14.20;92.20
12819;DHT22;6474;53.474;9.894;2022-10-31T09:15:45;14.20;92.20
12819;DHT22;6474;53.474;9.894;2022-10-31T09:18:14;14.30;92.20
12819;DHT22;6474;53.474;9.894;2022-10-31T09:20:43;14.40;92.30
12819;DHT22;6474;53.474;9.894;2022-10-31T09:23:13;14.40;92.20
12819;DHT22;6474;53.474;9.894;2022-10-31T09:25:42;14.50;92.30
12819;DHT22;6474;53.474;9.894;2022-10-31T09:28:19;14.50;92.30
12819;DHT22;6474;53.474;9.894;2022-10-31T09:30:49;14.50;92.30
12819;DHT22;6474;53.474;9.894;2022-10-31T09:33:18;14.50;92.20
12819;DHT22;6474;53.474;9.894;2022-10-31T09:35:46;14.50;92.30
12819;DHT22;6474;53.474;9.894;2022-10-31T09:38:15;14.50;92.20
12819;DHT22;6474;53.474;9.894;2022-10-31T09:40:47;14.60;92.30
12819;DHT22;6474;53.474;9.894;2022-10-31T09:43:25;14.50;92.30
12819;DHT22;6474;53.474;9.894;2022-10-31T09:46:01;14.60;92.30
12819;DHT22;6474;53.474;9.894;2022-10-31T09:48:41;14.60;92.30
12819;DHT22;6474;53.474;9.894;2022-10-31T09:51:12;14.60;92.30
12819;DHT22;6474;53.474;9.894;2022-10-31T09:53:46;14.70;92.40
12819;DHT22;6474;53.474;9.894;2022-10-31T09:56:18;14.70;92.30
12819;DHT22;6474;53.474;9.894;2022-10-31T09:58:51;14.70;92.30
12819;DHT22;6474;53.474;9.894;2022-10-31T10:01:29;14.70;92.30
12819;DHT22;6474;53.474;9.894;2022-10-31T10:04:01;14.70;92.40
12819;DHT22;6474;53.474;9.894;2022-10-31T10:06:34;14.70;92.30
12819;DHT22;6474;53.474;9.894;2022-10-31T10:09:03;14.70;92.30
12819;DHT22;6474;53.474;9.894;2022-10-31T10:11:44;14.70;92.30
12819;DHT22;6474;53.474;9.894;2022-10-31T10:14:31;14.70;92.30
12819;DHT22;6474;53.474;9.894;2022-10-31T10:17:11;14.60;92.20
12819;DHT22;6474;53.474;9.894;2022-10-31T10:19:56;14.60;92.30
12819;DHT22;6474;53.474;9.894;2022-10-31T10:22:35;14.60;92.30
12819;DHT22;6474;53.474;9.894;2022-10-31T10:25:14;14.60;92.30
12819;DHT22;6474;53.474;9.894;2022-10-31T10:27:50;14.60;92.30
12819;DHT22;6474;53.474;9.894;2022-10-31T10:30:23;14.60;92.40
12819;DHT22;6474;53.474;9.894;2022-10-31T10:32:57;14.60;92.50
12819;DHT22;6474;53.474;9.894;2022-10-31T10:35:29;14.70;92.60
12819;DHT22;6474;53.474;9.894;2022-10-31T10:38:01;14.80;92.50
12819;DHT22;6474;53.474;9.894;2022-10-31T10:40:30;14.90;92.50
12819;DHT22;6474;53.474;9.894;2022-10-31T10:43:18;14.90;92.40
12819;DHT22;6474;53.474;9.894;2022-10-31T10:45:50;14.90;92.30
12819;DHT22;6474;53.474;9.894;2022-10-31T10:48:44;14.80;92.30
12819;DHT22;6474;53.474;9.894;2022-10-31T10:51:23;14.80;92.30
12819;DHT22;6474;53.474;9.894;2022-10-31T10:54:38;14.80;92.40
12819;DHT22;6474;53.474;9.894;2022-10-31T10:57:21;14.80;92.40
12819;DHT22;6474;53.474;9.894;2022-10-31T10:59:50;14.80;92.40
12819;DHT22;6474;53.474;9.894;2022-10-31T11:02:22;14.80;92.50
12819;DHT22;6474;53.474;9.894;2022-10-31T11:04:52;14.90;92.50
12819;DHT22;6474;53.474;9.894;2022-10-31T11:07:21;14.90;92.50
12819;DHT22;6474;53.474;9.894;2022-10-31T11:09:49;14.90;92.40
12819;DHT22;6474;53.474;9.894;2022-10-31T11:12:20;15.00;92.50
12819;DHT22;6474;53.474;9.894;2022-10-31T11:14:50;15.00;92.50
12819;DHT22;6474;53.474;9.894;2022-10-31T11:17:27;15.00;92.50
12819;DHT22;6474;53.474;9.894;2022-10-31T11:20:03;15.00;92.80
12819;DHT22;6474;53.474;9.894;2022-10-31T11:22:31;15.10;92.50
12819;DHT22;6474;53.474;9.894;2022-10-31T11:24:59;15.20;92.50
12819;DHT22;6474;53.474;9.894;2022-10-31T11:27:27;15.20;92.50
12819;DHT22;6474;53.474;9.894;2022-10-31T11:30:05;15.20;92.50
12819;DHT22;6474;53.474;9.894;2022-10-31T11:32:34;15.30;92.50
12819;DHT22;6474;53.474;9.894;2022-10-31T11:35:08;15.30;92.40
12819;DHT22;6474;53.474;9.894;2022-10-31T11:37:41;15.30;92.40
12819;DHT22;6474;53.474;9.894;2022-10-31T11:40:16;15.30;92.40
12819;DHT22;6474;53.474;9.894;2022-10-31T11:42:45;15.30;92.40
12819;DHT22;6474;53.474;9.894;2022-10-31T11:45:16;15.30;92.30
12819;DHT22;6474;53.474;9.894;2022-10-31T11:47:48;15.30;92.30
12819;DHT22;6474;53.474;9.894;2022-10-31T11:50:26;15.30;92.30
12819;DHT22;6474;53.474;9.894;2022-10-31T11:52:55;15.20;92.20
12819;DHT22;6474;53.474;9.894;2022-10-31T11:55:31;15.20;92.20
12819;DHT22;6474;53.474;9.894;2022-10-31T11:57:59;15.20;92.20
12819;DHT22;6474;53.474;9.894;2022-10-31T12:00:28;15.30;92.20
12819;DHT22;6474;53.474;9.894;2022-10-31T12:03:20;15.30;92.20
12819;DHT22;6474;53.474;9.894;2022-10-31T12:05:53;15.20;92.20
12819;DHT22;6474;53.474;9.894;2022-10-31T12:08:25;15.20;92.20
12819;DHT22;6474;53.474;9.894;2022-10-31T12:11:00;15.30;92.20
12819;DHT22;6474;53.474;9.894;2022-10-31T12:13:33;15.30;92.20
12819;DHT22;6474;53.474;9.894;2022-10-31T12:16:09;15.30;92.20
12819;DHT22;6474;53.474;9.894;2022-10-31T12:18:53;15.30;92.30
12819;DHT22;6474;53.474;9.894;2022-10-31T12:21:43;15.40;92.30
12819;DHT22;6474;53.474;9.894;2022-10-31T12:24:27;15.40;92.30
12819;DHT22;6474;53.474;9.894;2022-10-31T12:27:08;15.40;92.20
12819;DHT22;6474;53.474;9.894;2022-10-31T12:29:59;15.40;92.30
12819;DHT22;6474;53.474;9.894;2022-10-31T12:32:35;15.50;92.30
12819;DHT22;6474;53.474;9.894;2022-10-31T12:35:32;15.40;92.20
12819;DHT22;6474;53.474;9.894;2022-10-31T12:41:08;15.50;92.30
12819;DHT22;6474;53.474;9.894;2022-10-31T12:43:45;15.60;92.30
12819;DHT22;6474;53.474;9.894;2022-10-31T12:46:23;15.60;92.30
12819;DHT22;6474;53.474;9.894;2022-10-31T12:49:19;15.70;92.30
12819;DHT22;6474;53.474;9.894;2022-10-31T12:52:07;15.70;92.20
12819;DHT22;6474;53.474;9.894;2022-10-31T12:54:56;15.80;92.20
12819;DHT22;6474;53.474;9.894;2022-10-31T12:57:33;15.80;92.10
12819;DHT22;6474;53.474;9.894;2022-10-31T13:00:04;15.80;92.10
12819;DHT22;6474;53.474;9.894;2022-10-31T13:02:38;15.80;92.10
12819;DHT22;6474;53.474;9.894;2022-10-31T13:05:16;15.80;92.00
12819;DHT22;6474;53.474;9.894;2022-10-31T13:07:49;15.70;92.00
12819;DHT22;6474;53.474;9.894;2022-10-31T13:10:22;15.70;92.00
12819;DHT22;6474;53.474;9.894;2022-10-31T13:12:55;15.70;91.90
12819;DHT22;6474;53.474;9.894;2022-10-31T13:15:27;15.60;91.80
12819;DHT22;6474;53.474;9.894;2022-10-31T13:17:57;15.50;91.80
12819;DHT22;6474;53.474;9.894;2022-10-31T13:20:29;15.50;91.90
12819;DHT22;6474;53.474;9.894;2022-10-31T13:23:05;15.40;91.90
12819;DHT22;6474;53.474;9.894;2022-10-31T13:25:56;15.40;91.90
12819;DHT22;6474;53.474;9.894;2022-10-31T13:28:31;15.40;92.00
12819;DHT22;6474;53.474;9.894;2022-10-31T13:31:01;15.50;92.20
12819;DHT22;6474;53.474;9.894;2022-10-31T13:33:32;15.50;92.20
12819;DHT22;6474;53.474;9.894;2022-10-31T13:36:13;15.60;92.20
12819;DHT22;6474;53.474;9.894;2022-10-31T13:38:49;15.70;92.20
12819;DHT22;6474;53.474;9.894;2022-10-31T13:41:30;15.70;92.20
12819;DHT22;6474;53.474;9.894;2022-10-31T13:44:02;15.80;92.20
12819;DHT22;6474;53.474;9.894;2022-10-31T13:46:36;15.80;92.10
12819;DHT22;6474;53.474;9.894;2022-10-31T13:49:24;15.80;92.00
12819;DHT22;6474;53.474;9.894;2022-10-31T13:51:52;15.80;92.00
12819;DHT22;6474;53.474;9.894;2022-10-31T13:54:23;15.70;91.90
12819;DHT22;6474;53.474;9.894;2022-10-31T13:56:52;15.70;91.90
12819;DHT22;6474;53.474;9.894;2022-10-31T13:59:22;15.70;91.90
12819;DHT22;6474;53.474;9.894;2022-10-31T14:01:55;15.60;91.90
12819;DHT22;6474;53.474;9.894;2022-10-31T14:04:26;15.60;92.00
12819;DHT22;6474;53.474;9.894;2022-10-31T14:06:59;15.60;92.00
12819;DHT22;6474;53.474;9.894;2022-10-31T14:09:36;15.50;91.90
12819;DHT22;6474;53.474;9.894;2022-10-31T14:12:07;15.50;91.90
12819;DHT22;6474;53.474;9.894;2022-10-31T14:14:43;15.40;91.90
12819;DHT22;6474;53.474;9.894;2022-10-31T14:17:19;15.40;91.90
12819;DHT22;6474;53.474;9.894;2022-10-31T14:20:00;15.30;91.80
12819;DHT22;6474;53.474;9.894;2022-10-31T14:22:30;15.30;91.90
12819;DHT22;6474;53.474;9.894;2022-10-31T14:25:23;15.20;91.80
12819;DHT22;6474;53.474;9.894;2022-10-31T14:27:51;15.20;91.80
12819;DHT22;6474;53.474;9.894;2022-10-31T14:30:22;15.20;91.80
12819;DHT22;6474;53.474;9.894;2022-10-31T14:32:52;15.10;91.80
12819;DHT22;6474;53.474;9.894;2022-10-31T14:35:27;15.10;91.80
12819;DHT22;6474;53.474;9.894;2022-10-31T14:38:15;15.10;91.80
12819;DHT22;6474;53.474;9.894;2022-10-31T14:40:58;15.10;91.80
12819;DHT22;6474;53.474;9.894;2022-10-31T14:44:09;15.00;91.80
12819;DHT22;6474;53.474;9.894;2022-10-31T14:46:49;15.00;91.80
12819;DHT22;6474;53.474;9.894;2022-10-31T14:49:32;14.90;91.80
12819;DHT22;6474;53.474;9.894;2022-10-31T14:52:05;14.90;91.80
12819;DHT22;6474;53.474;9.894;2022-10-31T14:54:38;14.80;91.70
12819;DHT22;6474;53.474;9.894;2022-10-31T14:57:16;14.80;91.70
12819;DHT22;6474;53.474;9.894;2022-10-31T14:59:49;14.80;91.70
12819;DHT22;6474;53.474;9.894;2022-10-31T15:02:21;14.70;91.70
12819;DHT22;6474;53.474;9.894;2022-10-31T15:04:52;14.70;91.70
12819;DHT22;6474;53.474;9.894;2022-10-31T15:07:23;14.60;91.70
12819;DHT22;6474;53.474;9.894;2022-10-31T15:09:56;14.60;91.70
12819;DHT22;6474;53.474;9.894;2022-10-31T15:12:28;14.50;91.70
12819;DHT22;6474;53.474;9.894;2022-10-31T15:14:56;14.50;91.70
12819;DHT22;6474;53.474;9.894;2022-10-31T15:17:25;14.40;91.70
12819;DHT22;6474;53.474;9.894;2022-10-31T15:19:53;14.30;91.70
12819;DHT22;6474;53.474;9.894;2022-10-31T15:22:23;14.30;91.70
12819;DHT22;6474;53.474;9.894;2022-10-31T15:24:53;14.30;91.80
12819;DHT22;6474;53.474;9.894;2022-10-31T15:27:23;14.20;91.70
12819;DHT22;6474;53.474;9.894;2022-10-31T15:29:55;14.20;91.80
12819;DHT22;6474;53.474;9.894;2022-10-31T15:32:24;14.20;91.80
12819;DHT22;6474;53.474;9.894;2022-10-31T15:34:54;14.20;91.80
12819;DHT22;6474;53.474;9.894;2022-10-31T15:37:25;14.10;91.80
12819;DHT22;6474;53.474;9.894;2022-10-31T15:39:53;14.10;91.80
12819;DHT22;6474;53.474;9.894;2022-10-31T15:42:23;14.10;91.80
12819;DHT22;6474;53.474;9.894;2022-10-31T15:44:58;14.10;91.80
12819;DHT22;6474;53.474;9.894;2022-10-31T15:47:31;14.00;91.80
12819;DHT22;6474;53.474;9.894;2022-10-31T15:50:00;14.00;91.80
12819;DHT22;6474;53.474;9.894;2022-10-31T15:52:31;13.90;91.70
12819;DHT22;6474;53.474;9.894;2022-10-31T15:55:02;13.80;91.70
12819;DHT22;6474;53.474;9.894;2022-10-31T15:57:30;13.80;91.70
12819;DHT22;6474;53.474;9.894;2022-10-31T15:59:59;13.70;91.70
12819;DHT22;6474;53.474;9.894;2022-10-31T16:02:27;13.70;91.70
12819;DHT22;6474;53.474;9.894;2022-10-31T16:04:57;13.70;91.70
12819;DHT22;6474;53.474;9.894;2022-10-31T16:07:28;13.60;91.70
12819;DHT22;6474;53.474;9.894;2022-10-31T16:09:58;13.60;91.80
12819;DHT22;6474;53.474;9.894;2022-10-31T16:12:31;13.60;91.80
12819;DHT22;6474;53.474;9.894;2022-10-31T16:15:01;13.60;91.80
12819;DHT22;6474;53.474;9.894;2022-10-31T16:17:29;13.60;91.80
12819;DHT22;6474;53.474;9.894;2022-10-31T16:19:59;13.50;91.80
12819;DHT22;6474;53.474;9.894;2022-10-31T16:22:29;13.50;91.80
12819;DHT22;6474;53.474;9.894;2022-10-31T16:25:02;13.50;91.80